Time;durP1;ratioP1;P1;durP2;ratioP2;P2;SDS_P1;SDS_P2;PMS_P1;PMS_P2;Temp;Humidity;BMP_temperature;BMP_pressure;BME280_temperature;BME280_humidity;BME280_pressure;Samples;Min_cycle;Max_cycle;Signal;HPM_P1;HPM_P2
2023/05/20 06:16:38;;;;;;;;;;;;;;;16.20;63.68;98196.59;5820119;23;19969;-61
2023/05/20 06:19:04;;;;;;;;;;;;;;;16.28;63.71;98188.78;4950122;28;19970;-62
2023/05/20 06:21:30;;;;;;;;;;;;;;;16.22;63.77;98197.28;4954318;29;19918;-62
2023/05/20 06:23:55;;;;;;;;;;;;;;;16.32;63.51;98193.66;4954329;29;19922;-62
2023/05/20 06:26:21;;;;;;;;;;;;;;;16.42;63.09;98184.88;4953334;29;19914;-63
2023/05/20 06:28:46;;;;;;;;;;;;;;;16.44;62.81;98180.25;4935406;29;19927;-62
2023/05/20 06:31:11;;;;;;;;;;;;;;;16.46;62.77;98186.25;4934388;29;19970;-57
2023/05/20 06:33:37;;;;;;;;;;;;;;;16.43;62.17;98183.88;4934594;29;19919;-62
2023/05/20 06:36:02;;;;;;;;;;;;;;;16.51;62.29;98186.63;4932294;29;19943;-62
2023/05/20 06:38:27;;;;;;;;;;;;;;;16.53;62.19;98176.75;4932940;29;19919;-61
2023/05/20 06:40:52;;;;;;;;;;;;;;;16.64;61.99;98181.03;4930037;29;20292;-61
2023/05/20 06:43:18;;;;;;;;;;;;;;;16.69;61.80;98179.66;4937425;29;20419;-62
2023/05/20 06:45:43;;;;;;;;;;;;;;;16.77;61.62;98177.13;4934357;29;20295;-61
2023/05/20 06:48:08;;;;;;;;;;;;;;;16.82;61.36;98169.56;4951221;29;19915;-63
2023/05/20 06:50:33;;;;;;;;;;;;;;;16.89;61.50;98175.13;4935859;29;19966;-63
2023/05/20 06:52:59;;;;;;;;;;;;;;;16.89;60.76;98177.75;4935627;29;19918;-63
2023/05/20 06:55:25;;;;;;;;;;;;;;;16.97;60.93;98172.59;4939248;29;19915;-63
2023/05/20 06:57:50;;;;;;;;;;;;;;;16.98;60.88;98171.59;4926248;29;19918;-61
2023/05/20 07:00:15;;;;;;;;;;;;;;;17.09;60.60;98165.28;4931291;29;19929;-60
2023/05/20 07:02:41;;;;;;;;;;;;;;;17.13;59.89;98161.34;4935048;29;20608;-61
2023/05/20 07:05:06;;;;;;;;;;;;;;;17.24;60.09;98163.81;4934744;29;20314;-61
2023/05/20 07:07:31;;;;;;;;;;;;;;;17.33;59.88;98168.22;4935802;29;20419;-61
2023/05/20 07:09:56;;;;;;;;;;;;;;;17.43;59.78;98172.63;4935296;29;19985;-60
2023/05/20 07:12:22;;;;;;;;;;;;;;;17.50;59.46;98158.59;4933200;29;19919;-61
2023/05/20 07:14:47;;;;;;;;;;;;;;;17.59;59.46;98161.38;4934715;29;19919;-61
2023/05/20 07:17:12;;;;;;;;;;;;;;;17.67;59.26;98164.91;4935695;29;19918;-60
2023/05/20 07:19:37;;;;;;;;;;;;;;;17.75;58.82;98162.34;4932209;29;20095;-60
2023/05/20 07:22:03;;;;;;;;;;;;;;;17.79;58.52;98147.84;4935411;29;19925;-61
2023/05/20 07:24:28;;;;;;;;;;;;;;;17.93;58.48;98149.13;4934772;29;19919;-61
2023/05/20 07:26:53;;;;;;;;;;;;;;;18.01;58.02;98151.00;4929722;29;19926;-61
2023/05/20 07:29:18;;;;;;;;;;;;;;;18.06;57.82;98147.88;4933775;29;19926;-61
2023/05/20 07:31:43;;;;;;;;;;;;;;;18.11;57.74;98141.13;4917350;29;19978;-61
2023/05/20 07:34:09;;;;;;;;;;;;;;;18.23;57.42;98134.56;4933127;29;19923;-61
2023/05/20 07:36:34;;;;;;;;;;;;;;;18.36;57.73;98144.78;4915781;29;19918;-61
2023/05/20 07:39:00;;;;;;;;;;;;;;;18.37;56.78;98143.78;4936184;29;19923;-61
2023/05/20 07:41:25;;;;;;;;;;;;;;;18.48;56.71;98137.41;4936613;29;20388;-60
2023/05/20 07:43:51;;;;;;;;;;;;;;;18.55;56.24;98141.09;4934007;29;20447;-62
2023/05/20 07:46:16;;;;;;;;;;;;;;;18.67;56.13;98142.47;4933121;29;20352;-62
2023/05/20 07:48:41;;;;;;;;;;;;;;;18.76;55.87;98132.78;4934959;29;20357;-61
2023/05/20 07:51:06;;;;;;;;;;;;;;;18.92;56.11;98134.66;4931933;29;19922;-61
2023/05/20 07:53:32;;;;;;;;;;;;;;;19.05;55.69;98129.72;4934834;29;19922;-61
2023/05/20 07:55:57;;;;;;;;;;;;;;;19.13;54.87;98132.44;4915406;29;19918;-62
2023/05/20 07:58:22;;;;;;;;;;;;;;;19.29;54.54;98136.13;4934947;29;19914;-61
2023/05/20 08:00:48;;;;;;;;;;;;;;;19.42;54.38;98125.84;4932850;29;19930;-61
2023/05/20 08:03:13;;;;;;;;;;;;;;;19.51;52.95;98130.22;4933662;29;19919;-61
2023/05/20 08:05:39;;;;;;;;;;;;;;;19.47;52.59;98128.84;4935500;29;19925;-61
2023/05/20 08:08:05;;;;;;;;;;;;;;;19.66;53.36;98123.25;4917907;29;19922;-62
2023/05/20 08:10:30;;;;;;;;;;;;;;;19.84;53.41;98119.63;4930202;29;20327;-61
2023/05/20 08:12:56;;;;;;;;;;;;;;;19.95;52.35;98113.94;4934276;29;19919;-61
2023/05/20 08:15:21;;;;;;;;;;;;;;;20.09;51.63;98112.44;4933663;29;19925;-62
2023/05/20 08:17:46;;;;;;;;;;;;;;;20.13;51.55;98109.31;4934442;29;20384;-61
2023/05/20 08:20:11;;;;;;;;;;;;;;;20.19;52.21;98105.13;4931672;29;20427;-61
2023/05/20 08:22:37;;;;;;;;;;;;;;;20.38;52.53;98112.75;4932873;29;20380;-60
2023/05/20 08:25:02;;;;;;;;;;;;;;;20.56;51.18;98095.75;4934673;29;19919;-61
2023/05/20 08:27:28;;;;;;;;;;;;;;;20.74;50.86;98095.53;4932492;29;20002;-62
2023/05/20 08:29:53;;;;;;;;;;;;;;;20.96;51.55;98097.44;4916686;29;19978;-61
2023/05/20 08:32:18;;;;;;;;;;;;;;;21.14;50.45;98096.38;4916583;29;19953;-61
2023/05/20 08:34:43;;;;;;;;;;;;;;;21.43;50.87;98091.19;4916480;29;20299;-62
2023/05/20 08:37:09;;;;;;;;;;;;;;;21.76;50.90;98089.13;4932753;29;20277;-62
2023/05/20 08:39:34;;;;;;;;;;;;;;;21.99;50.20;98083.78;4916751;29;20001;-62
2023/05/20 08:42:00;;;;;;;;;;;;;;;22.20;48.84;98091.13;4937349;29;20407;-62
2023/05/20 08:44:25;;;;;;;;;;;;;;;22.35;47.92;98091.13;4935984;29;20295;-62
2023/05/20 08:46:50;;;;;;;;;;;;;;;22.55;47.11;98093.28;4919828;29;20308;-62
2023/05/20 08:49:15;;;;;;;;;;;;;;;22.71;46.70;98085.06;4917175;29;20285;-62
2023/05/20 08:51:41;;;;;;;;;;;;;;;22.67;45.28;98081.09;4937427;29;20018;-62
2023/05/20 08:54:07;;;;;;;;;;;;;;;22.77;44.89;98081.66;4937088;29;19922;-61
2023/05/20 08:56:32;;;;;;;;;;;;;;;23.02;44.67;98081.34;4920794;29;19986;-62
2023/05/20 08:58:58;;;;;;;;;;;;;;;22.94;46.21;98085.81;4936817;29;20444;-62
2023/05/20 09:01:23;;;;;;;;;;;;;;;23.10;45.42;98083.94;4918625;29;19930;-61
2023/05/20 09:03:49;;;;;;;;;;;;;;;22.85;44.82;98092.25;4938496;29;19923;-61
2023/05/20 09:06:15;;;;;;;;;;;;;;;22.46;44.55;98079.16;4939819;28;19918;-61
2023/05/20 09:08:40;;;;;;;;;;;;;;;22.24;44.95;98088.91;4942462;29;19918;-62
2023/05/20 09:11:08;;;;;;;;;;;;;;;22.83;43.89;98080.91;4918595;29;19945;-61
2023/05/20 09:13:33;;;;;;;;;;;;;;;23.26;43.98;98069.50;4935174;29;20351;-60
2023/05/20 09:15:59;;;;;;;;;;;;;;;23.46;42.69;98083.91;4934645;29;20388;-62
2023/05/20 09:18:25;;;;;;;;;;;;;;;23.83;42.45;98085.56;4943847;29;19960;-62
2023/05/20 09:20:51;;;;;;;;;;;;;;;24.20;41.77;98091.63;4940110;29;19958;-62
2023/05/20 09:23:17;;;;;;;;;;;;;;;24.71;42.21;98091.38;4919839;29;19930;-62
2023/05/20 09:25:43;;;;;;;;;;;;;;;25.04;40.68;98088.84;4919424;29;19927;-62
2023/05/20 09:28:08;;;;;;;;;;;;;;;24.97;40.26;98096.03;4930304;29;19933;-61
2023/05/20 09:30:33;;;;;;;;;;;;;;;24.77;39.97;98087.88;4936125;29;20387;-63
2023/05/20 09:32:59;;;;;;;;;;;;;;;25.03;39.55;98086.34;4919214;29;20277;-63
2023/05/20 09:35:25;;;;;;;;;;;;;;;24.69;40.54;98090.72;4937012;29;19925;-63
2023/05/20 09:37:56;;;;;;;;;;;;;;;24.73;39.39;98078.56;4920649;29;19915;-63
2023/05/20 09:40:22;;;;;;;;;;;;;;;24.73;41.09;98081.25;4919942;29;19919;-63
2023/05/20 09:42:53;;;;;;;;;;;;;;;24.83;40.45;98075.53;4917761;29;20035;-63
2023/05/20 09:45:20;;;;;;;;;;;;;;;25.30;39.45;98079.25;4938310;29;19926;-62
2023/05/20 09:47:46;;;;;;;;;;;;;;;25.68;39.02;98074.19;4944166;28;20175;-62
2023/05/20 09:50:11;;;;;;;;;;;;;;;25.70;38.34;98071.28;4916838;29;19925;-61
2023/05/20 09:52:37;;;;;;;;;;;;;;;26.03;37.74;98065.94;4936117;29;20381;-62
2023/05/20 09:55:05;;;;;;;;;;;;;;;26.07;38.11;98061.81;4933142;29;19919;-62
2023/05/20 09:57:32;;;;;;;;;;;;;;;26.06;37.38;98060.16;4918991;29;19981;-62
2023/05/20 09:59:57;;;;;;;;;;;;;;;26.13;37.37;98060.16;4936699;29;19915;-62
2023/05/20 10:02:23;;;;;;;;;;;;;;;26.71;35.70;98053.03;4938918;29;19922;-61
2023/05/20 10:04:48;;;;;;;;;;;;;;;26.96;35.59;98063.09;4937199;29;19934;-62
2023/05/20 10:07:13;;;;;;;;;;;;;;;27.27;36.44;98053.44;4919035;29;19923;-62
2023/05/20 10:09:44;;;;;;;;;;;;;;;27.81;35.44;98046.69;4933219;29;19919;-62
2023/05/20 10:12:23;;;;;;;;;;;;;;;27.66;35.03;98034.31;4946346;28;19922;-62
2023/05/20 10:14:51;;;;;;;;;;;;;;;28.08;34.97;98042.72;4912278;29;20001;-63
2023/05/20 10:17:20;;;;;;;;;;;;;;;28.24;34.60;98040.50;4950719;28;19922;-62
2023/05/20 10:19:45;;;;;;;;;;;;;;;28.44;34.02;98032.25;4915081;29;19918;-62
2023/05/20 10:22:10;;;;;;;;;;;;;;;27.81;33.89;98036.75;4932944;29;19926;-63
2023/05/20 10:24:42;;;;;;;;;;;;;;;27.87;34.02;98025.09;4920855;29;20307;-62
2023/05/20 10:27:13;;;;;;;;;;;;;;;28.20;33.96;98039.31;4913827;29;19934;-62
2023/05/20 10:29:42;;;;;;;;;;;;;;;28.51;33.74;98030.28;4934240;29;19926;-62
2023/05/20 10:32:07;;;;;;;;;;;;;;;28.20;34.15;98026.63;4939180;29;19949;-62
2023/05/20 10:34:42;;;;;;;;;;;;;;;27.27;34.81;98026.53;4938371;29;20269;-62
2023/05/20 10:37:08;;;;;;;;;;;;;;;26.97;35.49;98032.44;4934368;29;19979;-62
2023/05/20 10:39:33;;;;;;;;;;;;;;;26.76;35.61;98028.19;4936354;29;19915;-62
2023/05/20 10:42:08;;;;;;;;;;;;;;;27.09;35.60;98019.16;4935529;29;19919;-62
2023/05/20 10:44:42;;;;;;;;;;;;;;;27.99;34.93;98019.78;4949647;29;19915;-62
2023/05/20 10:47:08;;;;;;;;;;;;;;;28.29;34.22;98011.81;4949078;28;19922;-61
2023/05/20 10:49:34;;;;;;;;;;;;;;;28.01;34.44;98015.00;4915451;29;19938;-62
2023/05/20 10:51:59;;;;;;;;;;;;;;;27.83;34.53;98023.03;4920834;29;20014;-62
2023/05/20 10:54:24;;;;;;;;;;;;;;;27.59;33.83;98014.69;4931540;29;19918;-62
2023/05/20 10:56:50;;;;;;;;;;;;;;;27.61;34.02;98009.91;4916919;29;19926;-62
2023/05/20 10:59:15;;;;;;;;;;;;;;;27.57;34.52;98008.72;4929985;29;19926;-62
2023/05/20 11:01:41;;;;;;;;;;;;;;;28.25;33.49;98009.78;4950046;29;19974;-63
2023/05/20 11:04:07;;;;;;;;;;;;;;;29.13;32.33;98008.59;4947732;28;19926;-62
2023/05/20 11:06:33;;;;;;;;;;;;;;;29.82;31.19;97993.63;4951620;29;19921;-62
2023/05/20 11:09:03;;;;;;;;;;;;;;;30.31;31.27;97996.09;4934679;29;20351;-61
2023/05/20 11:11:28;;;;;;;;;;;;;;;30.54;30.27;97995.25;4930604;29;19918;-62
2023/05/20 11:13:55;;;;;;;;;;;;;;;30.55;30.27;97999.59;4940324;29;20001;-63
2023/05/20 11:16:21;;;;;;;;;;;;;;;31.21;30.03;97990.09;4935701;29;19954;-62
2023/05/20 11:18:47;;;;;;;;;;;;;;;30.58;30.15;97982.88;4915410;29;19977;-63
2023/05/20 11:21:12;;;;;;;;;;;;;;;30.68;30.78;97991.22;4934710;29;20420;-62
2023/05/20 11:23:37;;;;;;;;;;;;;;;30.64;29.52;97984.66;4932850;29;19921;-62
2023/05/20 11:26:03;;;;;;;;;;;;;;;30.54;29.47;97989.84;4934694;29;20014;-62
2023/05/20 11:28:28;;;;;;;;;;;;;;;30.27;29.99;97985.75;4939797;29;20472;-62
2023/05/20 11:30:53;;;;;;;;;;;;;;;30.90;29.03;97981.41;4918623;29;19966;-62
2023/05/20 11:33:19;;;;;;;;;;;;;;;30.32;29.46;97981.50;4936197;29;19929;-62
2023/05/20 11:35:51;;;;;;;;;;;;;;;31.06;28.57;97977.09;4917164;29;19926;-62
2023/05/20 11:38:17;;;;;;;;;;;;;;;31.92;28.02;97975.06;4934135;29;19923;-62
2023/05/20 11:40:44;;;;;;;;;;;;;;;32.64;27.28;97970.66;4931984;29;19919;-62
2023/05/20 11:43:09;;;;;;;;;;;;;;;32.72;27.35;97972.91;4938407;29;19929;-63
2023/05/20 11:45:44;;;;;;;;;;;;;;;31.64;28.44;97967.03;4941332;29;20021;-62
2023/05/20 11:48:10;;;;;;;;;;;;;;;31.53;27.54;97959.81;4935300;29;19914;-61
2023/05/20 11:50:38;;;;;;;;;;;;;;;31.90;27.65;97955.53;4929229;29;19941;-61
2023/05/20 11:53:03;;;;;;;;;;;;;;;31.52;27.72;97952.72;4934197;29;19918;-63
2023/05/20 11:55:28;;;;;;;;;;;;;;;32.94;27.23;97955.78;4934241;29;20284;-63
2023/05/20 11:57:54;;;;;;;;;;;;;;;33.73;26.58;97950.56;4905033;29;19926;-62
2023/05/20 12:00:19;;;;;;;;;;;;;;;34.06;25.32;97954.06;4935685;29;19919;-62
2023/05/20 12:02:45;;;;;;;;;;;;;;;33.68;25.68;97952.41;4933930;29;19923;-62
2023/05/20 12:05:10;;;;;;;;;;;;;;;32.84;26.13;97957.31;4917463;29;19930;-62
2023/05/20 12:07:35;;;;;;;;;;;;;;;32.08;27.16;97959.03;4933317;29;20369;-62
2023/05/20 12:10:01;;;;;;;;;;;;;;;33.39;26.74;97957.34;4938729;29;20341;-62
2023/05/20 12:12:26;;;;;;;;;;;;;;;33.82;25.78;97964.47;4918571;29;19985;-62
2023/05/20 12:14:52;;;;;;;;;;;;;;;33.87;25.63;97961.00;4934076;29;20408;-62
2023/05/20 12:17:17;;;;;;;;;;;;;;;33.26;26.22;97962.09;4935548;29;21589;-63
2023/05/20 12:19:42;;;;;;;;;;;;;;;32.18;27.25;97966.50;4918543;29;19923;-63
2023/05/20 12:22:07;;;;;;;;;;;;;;;31.76;27.86;97967.75;4933774;29;19919;-62
2023/05/20 12:24:33;;;;;;;;;;;;;;;30.68;29.32;97961.44;4934058;29;19967;-62
2023/05/20 12:26:58;;;;;;;;;;;;;;;30.35;29.71;97964.81;4932082;29;19923;-63
2023/05/20 12:29:23;;;;;;;;;;;;;;;30.21;30.47;97953.44;4941769;29;19945;-62
2023/05/20 12:31:48;;;;;;;;;;;;;;;30.63;29.79;97961.34;4927115;29;19919;-63
2023/05/20 12:34:13;;;;;;;;;;;;;;;31.08;29.70;97953.31;4932698;29;20353;-62
2023/05/20 12:36:39;;;;;;;;;;;;;;;30.92;29.21;97964.91;4934585;29;19999;-62
2023/05/20 12:39:04;;;;;;;;;;;;;;;30.85;29.72;97965.06;4934713;29;19918;-63
2023/05/20 12:41:30;;;;;;;;;;;;;;;30.91;29.76;97960.56;4929729;29;19970;-62
2023/05/20 12:43:55;;;;;;;;;;;;;;;30.66;30.52;97960.84;4934470;29;19954;-62
2023/05/20 12:46:20;;;;;;;;;;;;;;;30.42;30.35;97952.81;4936517;29;20384;-63
2023/05/20 12:48:45;;;;;;;;;;;;;;;30.54;30.62;97958.19;4936986;29;19919;-62
2023/05/20 12:51:11;;;;;;;;;;;;;;;30.69;29.99;97950.38;4933891;29;19938;-61
2023/05/20 12:53:36;;;;;;;;;;;;;;;31.25;29.39;97942.50;4933547;29;19930;-62
2023/05/20 12:56:01;;;;;;;;;;;;;;;31.59;28.76;97945.25;4932035;29;19918;-62
2023/05/20 12:58:26;;;;;;;;;;;;;;;31.58;28.75;97955.25;4940581;29;20003;-62
2023/05/20 13:00:52;;;;;;;;;;;;;;;31.56;29.27;97948.47;4934365;29;20296;-62
2023/05/20 13:03:17;;;;;;;;;;;;;;;32.14;28.44;97949.88;4933221;29;20402;-62
2023/05/20 13:05:42;;;;;;;;;;;;;;;33.61;26.78;97952.63;4934608;29;20344;-63
2023/05/20 13:08:08;;;;;;;;;;;;;;;34.44;25.05;97943.91;4931764;29;19927;-63
2023/05/20 13:10:34;;;;;;;;;;;;;;;34.91;25.06;97940.28;4934122;29;19940;-63
2023/05/20 13:12:59;;;;;;;;;;;;;;;35.01;24.94;97937.63;4933977;29;20452;-62
2023/05/20 13:15:24;;;;;;;;;;;;;;;34.79;25.08;97939.69;4930945;29;20423;-61
2023/05/20 13:17:50;;;;;;;;;;;;;;;34.15;25.71;97936.16;4938210;29;19966;-62
2023/05/20 13:20:15;;;;;;;;;;;;;;;33.46;26.28;97944.34;4934340;29;19915;-62
2023/05/20 13:22:41;;;;;;;;;;;;;;;33.30;26.18;97936.03;4915955;29;20359;-62
2023/05/20 13:25:06;;;;;;;;;;;;;;;32.78;27.54;97944.75;4932434;29;19929;-62
2023/05/20 13:27:31;;;;;;;;;;;;;;;32.34;27.08;97944.72;4939713;28;19918;-62
2023/05/20 13:29:57;;;;;;;;;;;;;;;32.08;28.19;97940.06;4937847;29;19979;-62
2023/05/20 13:32:22;;;;;;;;;;;;;;;32.31;27.87;97942.53;4936910;29;19919;-62
2023/05/20 13:34:47;;;;;;;;;;;;;;;32.82;27.43;97931.47;4937608;29;20001;-62
2023/05/20 13:37:12;;;;;;;;;;;;;;;32.20;28.43;97932.59;4940874;28;20013;-62
2023/05/20 13:39:37;;;;;;;;;;;;;;;32.22;28.24;97932.38;4933562;29;20005;-62
2023/05/20 13:42:03;;;;;;;;;;;;;;;32.21;27.93;97928.84;4933720;29;20380;-63
2023/05/20 13:44:28;;;;;;;;;;;;;;;32.02;27.73;97919.34;4937397;29;20315;-62
2023/05/20 13:46:53;;;;;;;;;;;;;;;32.25;28.27;97921.03;4937454;29;19998;-62
2023/05/20 13:49:19;;;;;;;;;;;;;;;31.50;29.14;97916.94;4936694;29;20376;-62
2023/05/20 13:51:45;;;;;;;;;;;;;;;30.89;29.08;97914.78;4920101;29;20284;-62
2023/05/20 13:54:10;;;;;;;;;;;;;;;30.85;29.93;97923.63;4937148;29;20431;-62
2023/05/20 13:56:35;;;;;;;;;;;;;;;30.89;29.72;97912.06;4936923;29;20014;-63
2023/05/20 13:59:00;;;;;;;;;;;;;;;30.40;30.43;97914.34;4942633;29;20002;-61
2023/05/20 14:01:27;;;;;;;;;;;;;;;29.96;31.51;97908.53;4937673;29;20009;-62
2023/05/20 14:03:52;;;;;;;;;;;;;;;29.84;31.40;97902.31;4926628;29;19926;-62
2023/05/20 14:06:17;;;;;;;;;;;;;;;29.94;31.43;97901.69;4937462;29;19927;-62
2023/05/20 14:08:43;;;;;;;;;;;;;;;29.55;32.44;97890.53;4936071;29;19962;-62
2023/05/20 14:11:08;;;;;;;;;;;;;;;29.61;32.31;97892.34;4937555;29;19919;-61
2023/05/20 14:13:34;;;;;;;;;;;;;;;29.44;32.44;97894.06;4934629;29;19919;-62
2023/05/20 14:15:59;;;;;;;;;;;;;;;29.23;32.87;97887.34;4936135;29;19970;-62
2023/05/20 14:18:24;;;;;;;;;;;;;;;29.02;32.75;97878.72;4939245;29;20404;-61
2023/05/20 14:20:49;;;;;;;;;;;;;;;28.69;33.46;97881.06;4936810;29;19970;-62
2023/05/20 14:23:15;;;;;;;;;;;;;;;28.41;33.52;97873.56;4935654;29;19919;-62
2023/05/20 14:25:40;;;;;;;;;;;;;;;28.33;34.02;97877.38;4936852;29;19971;-63
2023/05/20 14:28:05;;;;;;;;;;;;;;;28.23;34.35;97882.47;4930831;29;20010;-62
2023/05/20 14:30:30;;;;;;;;;;;;;;;28.12;34.79;97884.88;4936384;29;19982;-62
2023/05/20 14:32:55;;;;;;;;;;;;;;;27.98;34.82;97872.59;4934793;29;19919;-62
2023/05/20 14:35:21;;;;;;;;;;;;;;;28.40;34.34;97878.13;4936903;29;20360;-62
2023/05/20 14:37:46;;;;;;;;;;;;;;;28.57;33.57;97868.34;4934853;29;20349;-61
2023/05/20 14:40:11;;;;;;;;;;;;;;;28.92;33.19;97870.34;4936170;29;20385;-62
2023/05/20 14:42:37;;;;;;;;;;;;;;;29.38;32.46;97878.78;4930183;29;20055;-62
